Terminal Aerodrome Forecast
Issued by NWS

Home | Current Version | Previous Version | Text Only | Print | Product List | Glossary On
Versions: 1 2 3 4 5 6 7 8 9 10 11 12 13 14 15 16 17 18
000
FTUS46 KLOX 212345
TAFSBP
TAF
KSBP 212345Z 2200/2224 32015KT P6SM SCT250
     FM220200 32006KT P6SM SCT250
     FM220600 VRB03KT P6SM FEW250
     FM220900 00000KT 6SM BR SCT004
     FM221600 VRB03KT P6SM FEW007 SCT250
     FM222000 31012KT P6SM SCT250=

USA.gov is the U.S. government's official web portal to all federal, state and local government web resources and services.